createdAt,value
2024-01-16T00:00:41.682Z,47.05
2024-01-16T00:05:44.493Z,44.65
2024-01-16T00:10:46.672Z,43.03
2024-01-16T00:15:49.103Z,45.35
2024-01-16T00:20:51.382Z,44.50
2024-01-16T00:25:53.554Z,45.38
2024-01-16T00:30:55.712Z,45.40
2024-01-16T00:35:57.900Z,46.70
2024-01-16T00:41:00.061Z,41.20
2024-01-16T00:46:02.377Z,45.70
2024-01-16T00:51:04.599Z,43.63
2024-01-16T00:56:06.810Z,44.40
2024-01-16T01:01:09.060Z,45.72
2024-01-16T01:06:11.347Z,44.90
2024-01-16T01:11:13.747Z,44.58
2024-01-16T01:16:15.997Z,44.22
2024-01-16T01:21:18.211Z,45.58
2024-01-16T01:26:20.562Z,45.58
2024-01-16T01:31:22.826Z,47.90
2024-01-16T01:36:25.087Z,44.17
2024-01-16T01:41:27.240Z,46.90
2024-01-16T01:46:29.959Z,45.92
2024-01-16T01:51:32.534Z,44.97
2024-01-16T01:56:34.951Z,44.55
2024-01-16T02:01:37.137Z,44.22
2024-01-16T02:06:39.311Z,47.08
2024-01-16T02:11:42.229Z,44.38
2024-01-16T02:16:44.439Z,43.10
2024-01-16T02:21:51.408Z,42.95
2024-01-16T02:26:54.010Z,41.90
2024-01-16T02:31:56.163Z,43.85
2024-01-16T02:36:58.306Z,42.13
2024-01-16T02:42:00.753Z,42.85
2024-01-16T02:47:02.993Z,45.17
2024-01-16T02:52:05.336Z,44.33
2024-01-16T02:57:07.493Z,43.10
2024-01-16T03:02:09.736Z,46.20
2024-01-16T03:07:12.859Z,42.42
2024-01-16T03:12:15.028Z,43.30
2024-01-16T03:17:17.221Z,44.08
2024-01-16T03:22:19.462Z,40.40
2024-01-16T03:27:21.632Z,43.80
2024-01-16T03:32:23.860Z,43.85
2024-01-16T03:37:26.137Z,40.42
2024-01-16T03:42:28.509Z,40.85
2024-01-16T03:47:30.763Z,41.17
2024-01-16T03:52:33.022Z,43.17
2024-01-16T03:57:35.145Z,41.28
2024-01-16T04:02:39.068Z,41.55
2024-01-16T04:07:41.319Z,40.45
2024-01-16T04:12:43.511Z,42.00
2024-01-16T04:17:45.733Z,40.30
2024-01-16T04:22:48.387Z,40.22
2024-01-16T04:27:50.645Z,42.15
2024-01-16T04:32:53.012Z,44.28
2024-01-16T04:37:55.254Z,46.45
2024-01-16T04:42:57.453Z,43.10
2024-01-16T04:47:59.613Z,40.97
2024-01-16T04:53:02.135Z,40.72
2024-01-16T04:58:04.464Z,42.40
2024-01-16T05:03:06.927Z,42.88
2024-01-16T05:08:09.212Z,42.08
2024-01-16T05:13:11.795Z,41.72
2024-01-16T05:18:14.118Z,41.05
2024-01-16T05:23:16.410Z,40.78
2024-01-16T05:28:18.873Z,39.78
2024-01-16T05:33:21.166Z,40.45
2024-01-16T05:38:23.378Z,41.13
2024-01-16T05:43:25.567Z,40.50
2024-01-16T05:48:27.860Z,39.40
2024-01-16T05:53:30.067Z,39.55
2024-01-16T05:58:32.339Z,38.78
2024-01-16T06:03:34.713Z,38.20
2024-01-16T06:08:37.478Z,38.30
2024-01-16T06:13:39.883Z,37.30
2024-01-16T06:18:42.165Z,38.35
2024-01-16T06:23:44.442Z,35.97
2024-01-16T06:28:46.690Z,38.30
2024-01-16T06:33:49.171Z,34.88
2024-01-16T06:38:51.490Z,37.17
2024-01-16T06:43:53.941Z,34.72
2024-01-16T06:48:56.322Z,36.60
2024-01-16T06:53:58.621Z,35.60
2024-01-16T06:59:00.859Z,36.53
2024-01-16T07:04:03.413Z,34.90
2024-01-16T07:09:05.615Z,35.13
2024-01-16T07:14:08.777Z,35.28
2024-01-16T07:19:11.043Z,33.50
2024-01-16T07:24:13.310Z,35.38
2024-01-16T07:29:15.531Z,36.88
2024-01-16T07:34:17.787Z,31.92
2024-01-16T07:39:19.955Z,34.08
2024-01-16T07:44:22.098Z,32.55
2024-01-16T07:49:24.360Z,34.85
2024-01-16T07:54:26.561Z,33.60
2024-01-16T07:59:28.813Z,33.33
2024-01-16T08:04:30.950Z,26.88
2024-01-16T08:09:33.225Z,32.75
2024-01-16T08:14:35.654Z,31.67
2024-01-16T08:19:37.938Z,31.95
2024-01-16T08:24:40.662Z,31.98
2024-01-16T08:29:43.132Z,32.65
2024-01-16T08:34:45.424Z,30.83
2024-01-16T08:39:47.848Z,33.85
2024-01-16T08:44:50.015Z,33.33
2024-01-16T08:49:52.249Z,30.95
2024-01-16T08:54:54.449Z,32.65
2024-01-16T08:59:56.739Z,34.83
2024-01-16T09:04:59.365Z,31.23
2024-01-16T09:10:01.778Z,30.65
2024-01-16T09:15:03.940Z,31.88
2024-01-16T09:20:06.527Z,33.38
2024-01-16T09:25:08.891Z,34.13
2024-01-16T09:30:11.285Z,32.90
2024-01-16T09:35:13.514Z,32.03
2024-01-16T09:40:15.880Z,31.70
2024-01-16T09:45:21.392Z,32.53
2024-01-16T09:50:24.057Z,31.52
2024-01-16T09:55:26.286Z,33.72
2024-01-16T10:00:29.004Z,33.38
2024-01-16T10:05:32.312Z,30.15
2024-01-16T10:10:42.791Z,32.03
2024-01-16T10:15:52.735Z,30.23
2024-01-16T10:20:55.660Z,29.55
2024-01-16T10:26:14.024Z,26.67
2024-01-16T10:31:16.419Z,30.70
2024-01-16T10:36:18.974Z,27.83
2024-01-16T10:41:21.187Z,28.98
2024-01-16T10:46:25.133Z,26.08
2024-01-16T10:51:28.411Z,27.85
2024-01-16T10:56:31.039Z,28.00
2024-01-16T11:01:33.531Z,26.52
2024-01-16T11:06:36.023Z,26.50
2024-01-16T11:11:38.982Z,31.80
2024-01-16T11:16:41.661Z,25.80
2024-01-16T11:21:44.611Z,26.17
2024-01-16T11:26:46.917Z,24.05
2024-01-16T11:31:49.202Z,26.15
2024-01-16T11:36:52.513Z,24.60
2024-01-16T11:41:55.694Z,23.92
2024-01-16T11:47:04.703Z,22.58
2024-01-16T11:52:06.911Z,24.67
2024-01-16T11:57:09.172Z,23.58
2024-01-16T12:02:17.243Z,21.92
2024-01-16T12:07:19.771Z,23.25
2024-01-16T12:12:22.306Z,24.83
2024-01-16T12:17:24.876Z,22.52
2024-01-16T12:22:27.181Z,22.88
2024-01-16T12:27:29.382Z,23.25
2024-01-16T12:32:31.654Z,23.30
2024-01-16T12:37:33.832Z,22.58
2024-01-16T12:42:36.078Z,21.05
2024-01-16T12:47:38.307Z,21.88
2024-01-16T12:52:40.633Z,24.92
2024-01-16T12:57:42.840Z,21.88
2024-01-16T13:02:50.772Z,23.40
2024-01-16T13:08:01.488Z,22.90
2024-01-16T13:13:19.608Z,21.58
2024-01-16T13:18:25.583Z,21.55
2024-01-16T13:23:28.314Z,20.48
2024-01-16T13:28:30.803Z,20.10
2024-01-16T13:33:33.041Z,20.27
2024-01-16T13:38:35.581Z,24.20
2024-01-16T13:43:37.782Z,20.42
2024-01-16T13:48:40.090Z,21.60
2024-01-16T13:53:42.363Z,23.52
2024-01-16T13:58:44.564Z,21.23
2024-01-16T14:03:46.954Z,21.85
2024-01-16T14:08:49.245Z,22.13
2024-01-16T14:13:51.486Z,20.80
2024-01-16T14:18:53.718Z,21.50
2024-01-16T14:23:55.957Z,20.95
2024-01-16T14:28:58.084Z,23.13
2024-01-16T14:34:00.310Z,20.75
2024-01-16T14:39:02.625Z,21.15
2024-01-16T14:44:04.869Z,21.40
2024-01-16T14:49:07.144Z,22.10
2024-01-16T14:54:09.673Z,21.00
2024-01-16T14:59:14.370Z,21.23
2024-01-16T15:04:18.556Z,19.90
2024-01-16T15:09:20.903Z,20.98
2024-01-16T15:14:23.182Z,19.70
2024-01-16T15:19:25.706Z,21.33
2024-01-16T15:24:27.964Z,21.05
2024-01-16T15:29:30.154Z,20.17
2024-01-16T15:34:32.319Z,20.15
2024-01-16T15:39:34.583Z,19.85
2024-01-16T15:44:36.815Z,22.10
2024-01-16T15:49:39.049Z,21.52
2024-01-16T15:54:41.642Z,22.77
2024-01-16T15:59:44.152Z,18.98
2024-01-16T16:04:46.437Z,20.48
2024-01-16T16:09:48.552Z,19.60
2024-01-16T16:14:51.076Z,20.50
2024-01-16T16:19:53.330Z,22.10
2024-01-16T16:24:55.507Z,20.75
2024-01-16T16:29:58.430Z,20.60
2024-01-16T16:35:00.661Z,21.38
2024-01-16T16:40:02.882Z,20.70
2024-01-16T16:45:05.381Z,23.83
2024-01-16T16:50:07.598Z,24.33
2024-01-16T16:55:09.784Z,23.38
2024-01-16T17:00:12.281Z,26.27
2024-01-16T17:05:14.813Z,30.13
2024-01-16T17:10:17.143Z,30.90
2024-01-16T17:15:19.515Z,30.15
2024-01-16T17:20:22.886Z,30.05
2024-01-16T17:25:25.200Z,34.45
2024-01-16T17:30:27.434Z,35.90
2024-01-16T17:35:29.607Z,37.00
2024-01-16T17:40:32.043Z,37.65
2024-01-16T17:45:34.267Z,35.30
2024-01-16T17:50:37.976Z,38.65
2024-01-16T17:55:40.162Z,36.40
2024-01-16T18:00:42.378Z,35.17
2024-01-16T18:05:44.653Z,37.33
2024-01-16T18:10:46.846Z,36.35
2024-01-16T18:15:51.592Z,37.25
2024-01-16T18:20:53.877Z,39.95
2024-01-16T18:25:58.845Z,39.58
2024-01-16T18:31:02.755Z,40.05
2024-01-16T18:36:05.019Z,44.05
2024-01-16T18:41:10.431Z,38.63
2024-01-16T18:46:16.518Z,40.97
2024-01-16T18:51:19.294Z,38.83
2024-01-16T18:56:23.616Z,38.28
2024-01-16T19:01:27.952Z,42.17
2024-01-16T19:06:30.364Z,35.85
2024-01-16T19:11:38.676Z,38.45
2024-01-16T19:16:45.299Z,36.42
2024-01-16T19:21:50.212Z,36.35
2024-01-16T19:26:52.417Z,35.65
2024-01-16T19:31:54.547Z,36.95
2024-01-16T19:36:56.658Z,36.53
2024-01-16T19:42:01.378Z,34.38
2024-01-16T19:47:03.644Z,36.90
2024-01-16T19:52:05.926Z,33.15
2024-01-16T19:57:10.921Z,34.65
2024-01-16T20:02:13.583Z,32.55
2024-01-16T20:07:15.932Z,34.83
2024-01-16T20:12:20.547Z,35.42
2024-01-16T20:17:28.111Z,38.33
2024-01-16T20:22:30.327Z,32.35
2024-01-16T20:27:32.667Z,33.15
2024-01-16T20:32:35.034Z,34.42
2024-01-16T20:37:37.429Z,31.25
2024-01-16T20:42:39.849Z,31.33
2024-01-16T20:47:44.889Z,33.58
2024-01-16T20:52:47.095Z,32.42
2024-01-16T20:57:49.294Z,33.75
2024-01-16T21:02:51.477Z,31.73
2024-01-16T21:07:53.876Z,32.33
2024-01-16T21:12:56.253Z,33.28
2024-01-16T21:17:59.212Z,32.25
2024-01-16T21:23:01.493Z,31.85
2024-01-16T21:28:03.780Z,31.48
2024-01-16T21:33:06.045Z,30.45
2024-01-16T21:38:08.273Z,32.78
2024-01-16T21:43:10.456Z,32.55
2024-01-16T21:48:12.757Z,32.20
2024-01-16T21:53:15.034Z,34.67
2024-01-16T21:58:17.473Z,32.35
2024-01-16T22:03:19.912Z,31.77
2024-01-16T22:08:22.105Z,33.88
2024-01-16T22:13:24.342Z,32.38
2024-01-16T22:18:26.630Z,31.33
2024-01-16T22:23:29.436Z,31.65
2024-01-16T22:28:31.625Z,31.85
2024-01-16T22:33:34.233Z,32.40
2024-01-16T22:38:38.015Z,30.58
2024-01-16T22:43:40.335Z,32.37
2024-01-16T22:48:42.790Z,31.77
2024-01-16T22:53:45.123Z,31.85
2024-01-16T22:58:47.407Z,32.95
2024-01-16T23:03:49.584Z,31.90
2024-01-16T23:08:51.955Z,30.40
2024-01-16T23:13:54.820Z,32.60
2024-01-16T23:18:57.203Z,32.58
2024-01-16T23:23:59.581Z,32.38
2024-01-16T23:29:01.830Z,31.88
2024-01-16T23:34:04.142Z,31.40
2024-01-16T23:39:06.536Z,34.03
2024-01-16T23:44:08.892Z,35.40
2024-01-16T23:49:11.004Z,31.50
2024-01-16T23:54:13.225Z,32.17
2024-01-16T23:59:15.404Z,34.30
